Time;durP1;ratioP1;P1;durP2;ratioP2;P2;SDS_P1;SDS_P2;PMS_P1;PMS_P2;Temp;Humidity;BMP_temperature;BMP_pressure;BME280_temperature;BME280_humidity;BME280_pressure;Samples;Min_cycle;Max_cycle;Signal;HPM_P1;HPM_P2
2022/06/24 00:00:43;;;;;;;2.53;2.47;;;;;;;;;;10478863;28;21135;-72
2022/06/24 00:05:47;;;;;;;4.07;3.03;;;;;;;;;;10493812;28;20221;-73
2022/06/24 00:10:48;;;;;;;2.63;2.63;;;;;;;;;;10486591;28;20708;-73
2022/06/24 00:15:50;;;;;;;2.95;2.83;;;;;;;;;;10487285;28;20176;-70
2022/06/24 00:20:51;;;;;;;2.63;2.50;;;;;;;;;;10490948;28;20216;-69
2022/06/24 00:25:52;;;;;;;2.90;2.47;;;;;;;;;;10494002;28;20333;-70
2022/06/24 00:30:55;;;;;;;4.22;2.45;;;;;;;;;;10463770;28;20217;-70
2022/06/24 00:35:58;;;;;;;2.38;2.22;;;;;;;;;;10482369;28;20178;-70
2022/06/24 00:41:04;;;;;;;2.53;2.42;;;;;;;;;;10492675;28;20796;-70
2022/06/24 00:46:17;;;;;;;3.38;3.10;;;;;;;;;;10491711;28;20183;-69
2022/06/24 00:51:20;;;;;;;2.70;2.50;;;;;;;;;;10474235;28;20208;-69
2022/06/24 00:56:22;;;;;;;3.13;2.90;;;;;;;;;;10477558;28;20185;-70
2022/06/24 01:01:30;;;;;;;3.05;2.92;;;;;;;;;;10472278;28;20221;-72
2022/06/24 01:06:32;;;;;;;2.72;2.60;;;;;;;;;;10489851;28;20650;-72
2022/06/24 01:11:34;;;;;;;2.90;2.80;;;;;;;;;;10506061;28;20209;-72
2022/06/24 01:16:35;;;;;;;2.78;2.67;;;;;;;;;;10508388;28;20317;-71
2022/06/24 01:21:41;;;;;;;4.25;2.72;;;;;;;;;;10502624;28;20180;-70
2022/06/24 01:26:43;;;;;;;2.75;2.55;;;;;;;;;;10507450;28;20228;-70
2022/06/24 01:31:48;;;;;;;2.33;2.33;;;;;;;;;;10459398;28;20317;-70
2022/06/24 01:36:50;;;;;;;3.00;2.80;;;;;;;;;;10465272;28;20201;-70
2022/06/24 01:41:51;;;;;;;2.80;2.60;;;;;;;;;;10503998;28;20177;-70
2022/06/24 01:46:52;;;;;;;2.88;2.67;;;;;;;;;;10501189;28;20205;-70
2022/06/24 01:51:55;;;;;;;2.78;2.78;;;;;;;;;;10496861;28;20220;-70
2022/06/24 01:56:56;;;;;;;3.08;2.88;;;;;;;;;;10469589;28;20225;-70
2022/06/24 02:01:57;;;;;;;3.33;3.33;;;;;;;;;;10460004;28;20262;-70
2022/06/24 02:06:58;;;;;;;3.17;3.00;;;;;;;;;;10468164;28;20386;-70
2022/06/24 02:17:19;;;;;;;3.42;3.20;;;;;;;;;;10506805;28;21084;-70
2022/06/24 02:22:20;;;;;;;3.20;3.10;;;;;;;;;;10503675;28;20189;-70
2022/06/24 02:27:21;;;;;;;3.53;3.33;;;;;;;;;;10500735;28;20837;-70
2022/06/24 02:32:22;;;;;;;3.58;3.38;;;;;;;;;;10498254;28;20221;-70
2022/06/24 02:37:23;;;;;;;3.55;3.35;;;;;;;;;;10497053;28;20202;-70
2022/06/24 02:42:24;;;;;;;3.35;3.35;;;;;;;;;;10490952;28;20216;-70
2022/06/24 02:47:25;;;;;;;3.60;3.50;;;;;;;;;;10510457;28;20197;-70
2022/06/24 02:52:26;;;;;;;3.70;3.60;;;;;;;;;;10513837;28;20266;-70
2022/06/24 02:57:27;;;;;;;4.00;3.25;;;;;;;;;;10508081;28;20201;-70
2022/06/24 03:02:28;;;;;;;3.88;3.78;;;;;;;;;;10485615;28;20217;-71
2022/06/24 03:07:29;;;;;;;3.78;3.70;;;;;;;;;;10509263;28;20198;-71
2022/06/24 03:12:30;;;;;;;4.07;3.80;;;;;;;;;;10485431;28;21025;-70
2022/06/24 03:17:31;;;;;;;4.30;4.05;;;;;;;;;;10514784;28;20204;-70
2022/06/24 03:22:32;;;;;;;3.78;3.58;;;;;;;;;;10511739;28;20182;-70
2022/06/24 03:27:34;;;;;;;4.45;4.20;;;;;;;;;;10515455;28;20228;-70
2022/06/24 03:32:35;;;;;;;4.22;4.03;;;;;;;;;;10486426;28;20309;-70
2022/06/24 03:37:36;;;;;;;3.83;3.72;;;;;;;;;;10505636;28;20635;-70
2022/06/24 03:42:37;;;;;;;4.20;4.00;;;;;;;;;;10509461;28;20189;-69
2022/06/24 03:47:38;;;;;;;4.35;4.22;;;;;;;;;;10500150;28;20216;-70
2022/06/24 03:52:39;;;;;;;4.25;4.05;;;;;;;;;;10511592;28;20212;-70
2022/06/24 03:57:40;;;;;;;4.60;4.40;;;;;;;;;;10501405;28;20197;-71
2022/06/24 04:02:41;;;;;;;5.13;4.80;;;;;;;;;;10484133;28;20221;-71
2022/06/24 04:07:42;;;;;;;3.80;3.60;;;;;;;;;;10506124;28;20237;-71
2022/06/24 04:12:43;;;;;;;4.15;3.95;;;;;;;;;;10473340;28;20296;-70
2022/06/24 04:17:46;;;;;;;4.13;4.03;;;;;;;;;;10485871;28;20205;-72
2022/06/24 04:22:48;;;;;;;4.32;3.97;;;;;;;;;;10505952;28;20216;-70
2022/06/24 04:27:49;;;;;;;4.43;4.22;;;;;;;;;;10516248;28;20245;-71
2022/06/24 04:32:50;;;;;;;4.28;3.92;;;;;;;;;;10499167;28;20219;-71
2022/06/24 04:37:51;;;;;;;4.40;4.00;;;;;;;;;;10518047;28;20197;-71
2022/06/24 04:42:52;;;;;;;4.22;4.05;;;;;;;;;;10519895;28;20178;-71
2022/06/24 04:47:53;;;;;;;4.95;4.22;;;;;;;;;;10515102;28;20198;-71
2022/06/24 04:52:54;;;;;;;4.50;4.13;;;;;;;;;;10517717;28;20202;-71
2022/06/24 04:57:55;;;;;;;5.25;4.15;;;;;;;;;;10513362;28;20208;-71
2022/06/24 05:02:56;;;;;;;4.60;4.15;;;;;;;;;;10499589;28;20221;-71
2022/06/24 05:07:57;;;;;;;4.20;3.92;;;;;;;;;;10504542;28;20232;-71
2022/06/24 05:12:58;;;;;;;4.15;3.83;;;;;;;;;;10514859;28;20228;-71
2022/06/24 05:17:59;;;;;;;4.07;3.78;;;;;;;;;;10513229;28;20907;-71
2022/06/24 05:23:01;;;;;;;4.22;3.92;;;;;;;;;;10519647;28;20185;-70
2022/06/24 05:28:02;;;;;;;4.13;3.92;;;;;;;;;;10508423;28;20284;-71
2022/06/24 05:33:03;;;;;;;4.18;3.88;;;;;;;;;;10498856;28;20214;-71
2022/06/24 05:38:04;;;;;;;3.45;3.25;;;;;;;;;;10501319;28;20246;-71
2022/06/24 05:43:05;;;;;;;3.97;3.67;;;;;;;;;;10497283;28;20284;-71
2022/06/24 05:48:06;;;;;;;3.97;3.75;;;;;;;;;;10479383;28;20200;-71
2022/06/24 05:58:29;;;;;;;4.28;3.72;;;;;;;;;;10500925;28;20197;-71
2022/06/24 06:03:32;;;;;;;3.10;2.90;;;;;;;;;;10493178;28;20296;-71
2022/06/24 06:08:33;;;;;;;3.40;3.20;;;;;;;;;;10509398;28;20201;-71
2022/06/24 06:13:34;;;;;;;6.47;3.47;;;;;;;;;;10487305;28;20290;-71
2022/06/24 06:18:35;;;;;;;3.65;3.45;;;;;;;;;;10501233;28;20198;-71
2022/06/24 06:23:37;;;;;;;6.00;3.63;;;;;;;;;;10509506;28;20277;-71
2022/06/24 06:28:38;;;;;;;5.38;3.33;;;;;;;;;;10482458;28;20637;-71
2022/06/24 06:33:40;;;;;;;3.85;2.92;;;;;;;;;;10475699;28;20953;-71
2022/06/24 06:38:41;;;;;;;6.15;2.95;;;;;;;;;;10499907;28;20205;-71
2022/06/24 06:43:42;;;;;;;2.90;2.70;;;;;;;;;;10491132;28;24235;-71
2022/06/24 06:48:43;;;;;;;4.18;2.55;;;;;;;;;;10495459;28;20249;-71
2022/06/24 06:53:44;;;;;;;2.80;2.60;;;;;;;;;;10491385;28;20811;-71
2022/06/24 06:58:45;;;;;;;3.33;2.58;;;;;;;;;;10498391;28;20197;-72
2022/06/24 07:03:46;;;;;;;7.90;2.63;;;;;;;;;;10456984;28;20221;-72
2022/06/24 07:08:47;;;;;;;2.40;2.30;;;;;;;;;;10498395;28;20213;-72
2022/06/24 07:13:48;;;;;;;2.60;2.42;;;;;;;;;;10483520;28;20288;-72
2022/06/24 07:18:49;;;;;;;2.42;2.42;;;;;;;;;;10497894;28;20235;-71
2022/06/24 07:23:50;;;;;;;2.63;2.53;;;;;;;;;;10464511;28;20256;-72
2022/06/24 07:28:51;;;;;;;7.30;2.70;;;;;;;;;;10488505;28;20269;-71
2022/06/24 07:33:52;;;;;;;3.90;2.20;;;;;;;;;;10464018;28;21537;-71
2022/06/24 07:38:53;;;;;;;2.75;2.47;;;;;;;;;;10465721;28;20254;-71
2022/06/24 07:43:56;;;;;;;1.90;1.90;;;;;;;;;;10499062;28;20666;-71
2022/06/24 07:48:57;;;;;;;3.30;2.20;;;;;;;;;;10487130;28;20205;-72
2022/06/24 07:53:58;;;;;;;4.47;2.40;;;;;;;;;;10472674;28;20221;-71
2022/06/24 07:58:59;;;;;;;2.38;2.22;;;;;;;;;;10492314;28;20189;-72
2022/06/24 08:04:07;;;;;;;3.35;2.03;;;;;;;;;;10487725;28;20602;-72
2022/06/24 08:09:08;;;;;;;2.08;1.95;;;;;;;;;;10500307;28;20204;-71
2022/06/24 08:14:09;;;;;;;2.83;1.80;;;;;;;;;;10471821;28;20201;-72
2022/06/24 08:19:11;;;;;;;1.98;1.83;;;;;;;;;;10507466;28;20831;-72
2022/06/24 08:24:13;;;;;;;3.33;1.52;;;;;;;;;;10504360;28;20169;-72
2022/06/24 08:29:14;;;;;;;1.50;1.50;;;;;;;;;;10500982;28;20234;-73
2022/06/24 08:34:15;;;;;;;2.65;1.33;;;;;;;;;;10483035;28;20332;-71
2022/06/24 08:39:17;;;;;;;1.58;1.30;;;;;;;;;;10491992;28;20217;-72
2022/06/24 08:44:18;;;;;;;1.00;1.00;;;;;;;;;;10505956;28;22315;-71
2022/06/24 08:49:19;;;;;;;0.80;0.80;;;;;;;;;;10507378;28;20263;-72
2022/06/24 08:54:22;;;;;;;1.02;0.73;;;;;;;;;;10509764;28;20263;-72
2022/06/24 08:59:23;;;;;;;1.35;0.50;;;;;;;;;;10499764;28;20201;-72
2022/06/24 09:04:24;;;;;;;0.60;0.50;;;;;;;;;;10466524;28;20263;-72
2022/06/24 09:09:26;;;;;;;1.25;0.70;;;;;;;;;;10505368;28;20201;-73
2022/06/24 09:14:43;;;;;;;0.50;0.50;;;;;;;;;;10492983;28;20206;-73
2022/06/24 09:19:44;;;;;;;1.00;0.75;;;;;;;;;;10505254;28;20240;-73
2022/06/24 09:24:47;;;;;;;1.02;0.50;;;;;;;;;;10469677;28;20177;-73
2022/06/24 09:29:48;;;;;;;2.40;0.50;;;;;;;;;;10487028;28;21017;-72
2022/06/24 09:35:03;;;;;;;1.27;0.50;;;;;;;;;;10462992;28;20300;-72
2022/06/24 09:40:15;;;;;;;1.15;0.45;;;;;;;;;;10491074;28;20209;-72
2022/06/24 09:45:16;;;;;;;1.23;0.50;;;;;;;;;;10506016;28;20664;-72
2022/06/24 09:50:18;;;;;;;1.85;0.50;;;;;;;;;;10499541;28;20194;-73
2022/06/24 09:55:19;;;;;;;1.20;0.50;;;;;;;;;;10499111;28;20282;-73
2022/06/24 10:05:41;;;;;;;0.90;0.63;;;;;;;;;;10502063;28;20269;-73
2022/06/24 10:10:45;;;;;;;0.68;0.68;;;;;;;;;;10478054;28;21252;-72
2022/06/24 10:15:46;;;;;;;0.85;0.80;;;;;;;;;;10488861;28;20192;-73
2022/06/24 10:20:49;;;;;;;0.70;0.70;;;;;;;;;;10490070;28;20229;-73
2022/06/24 10:25:52;;;;;;;1.00;0.65;;;;;;;;;;10483176;28;20305;-73
2022/06/24 10:30:57;;;;;;;1.95;0.70;;;;;;;;;;10430218;28;20234;-73
2022/06/24 10:35:58;;;;;;;1.13;1.13;;;;;;;;;;10439845;28;20258;-72
2022/06/24 10:41:00;;;;;;;2.25;1.20;;;;;;;;;;10443489;28;20198;-73
2022/06/24 10:46:19;;;;;;;5.13;2.10;;;;;;;;;;10435795;28;20315;-73
2022/06/24 10:51:21;;;;;;;3.20;2.20;;;;;;;;;;10452214;28;20198;-72
2022/06/24 10:56:41;;;;;;;5.35;2.70;;;;;;;;;;10455709;28;20189;-73
2022/06/24 11:01:47;;;;;;;5.70;3.13;;;;;;;;;;10398000;28;20215;-74
2022/06/24 11:07:07;;;;;;;5.05;2.72;;;;;;;;;;10452498;28;20202;-74
2022/06/24 11:12:28;;;;;;;4.15;3.85;;;;;;;;;;10459492;28;20266;-73
2022/06/24 11:17:29;;;;;;;3.40;3.13;;;;;;;;;;10454359;28;20259;-73
2022/06/24 11:22:30;;;;;;;3.72;1.95;;;;;;;;;;10452560;28;20621;-72
2022/06/24 11:27:35;;;;;;;3.85;0.93;;;;;;;;;;10461430;28;20347;-72
2022/06/24 11:32:56;;;;;;;1.85;0.70;;;;;;;;;;10459268;28;20650;-73
2022/06/24 11:37:57;;;;;;;5.78;0.90;;;;;;;;;;10472334;28;20204;-72
2022/06/24 11:43:03;;;;;;;0.70;0.50;;;;;;;;;;10497711;28;20190;-72
2022/06/24 11:48:05;;;;;;;2.30;0.70;;;;;;;;;;10497062;28;20202;-73
2022/06/24 11:53:07;;;;;;;1.38;0.73;;;;;;;;;;10477116;28;20258;-73
2022/06/24 11:58:11;;;;;;;0.50;0.50;;;;;;;;;;10490161;28;20852;-74
2022/06/24 12:03:12;;;;;;;0.63;0.40;;;;;;;;;;10465634;28;20240;-74
2022/06/24 12:08:14;;;;;;;1.08;0.30;;;;;;;;;;10494075;28;20208;-74
2022/06/24 12:13:24;;;;;;;3.65;0.40;;;;;;;;;;10495499;28;20201;-73
2022/06/24 12:18:25;;;;;;;1.35;0.40;;;;;;;;;;10497360;28;20329;-73
2022/06/24 12:23:31;;;;;;;0.90;0.32;;;;;;;;;;10505557;28;20177;-73
2022/06/24 12:28:32;;;;;;;2.05;0.50;;;;;;;;;;10503182;28;20308;-73
2022/06/24 12:33:38;;;;;;;0.30;0.30;;;;;;;;;;10459139;28;20215;-73
2022/06/24 12:38:40;;;;;;;2.08;0.30;;;;;;;;;;10504247;28;20853;-73
2022/06/24 12:43:51;;;;;;;0.52;0.20;;;;;;;;;;10503961;28;20274;-73
2022/06/24 12:54:13;;;;;;;0.13;0.13;;;;;;;;;;10486813;28;20937;-72
2022/06/24 12:59:14;;;;;;;0.70;0.20;;;;;;;;;;10517891;28;20201;-72
2022/06/24 13:04:15;;;;;;;1.95;0.15;;;;;;;;;;10500813;28;20213;-72
2022/06/24 13:09:16;;;;;;;0.17;0.17;;;;;;;;;;10510675;28;20197;-72
2022/06/24 13:14:17;;;;;;;0.30;0.30;;;;;;;;;;10509052;28;20201;-72
2022/06/24 13:19:18;;;;;;;5.32;0.52;;;;;;;;;;10520911;28;20206;-72
2022/06/24 13:24:19;;;;;;;0.30;0.30;;;;;;;;;;10517226;28;20182;-72
2022/06/24 13:29:20;;;;;;;0.40;0.40;;;;;;;;;;10496695;28;20227;-72
2022/06/24 13:34:21;;;;;;;0.60;0.55;;;;;;;;;;10500586;28;20597;-72
2022/06/24 13:39:26;;;;;;;1.40;0.40;;;;;;;;;;10516547;28;20205;-71
2022/06/24 13:44:27;;;;;;;1.20;0.43;;;;;;;;;;10491029;28;20644;-73
2022/06/24 13:49:28;;;;;;;0.80;0.60;;;;;;;;;;10503293;28;20201;-72
2022/06/24 13:54:29;;;;;;;0.98;0.50;;;;;;;;;;10491227;28;20205;-73
2022/06/24 13:59:30;;;;;;;0.45;0.45;;;;;;;;;;10511951;28;20201;-73
2022/06/24 14:04:31;;;;;;;2.47;0.52;;;;;;;;;;10468112;28;20213;-73
2022/06/24 14:09:32;;;;;;;0.73;0.50;;;;;;;;;;10513676;28;20651;-73
2022/06/24 14:14:33;;;;;;;0.63;0.60;;;;;;;;;;10512704;28;20275;-73
2022/06/24 14:19:34;;;;;;;3.50;0.70;;;;;;;;;;10488788;28;20288;-73
2022/06/24 14:24:35;;;;;;;0.90;0.90;;;;;;;;;;10508235;28;21136;-72
2022/06/24 14:29:38;;;;;;;0.98;0.75;;;;;;;;;;10485089;28;20225;-73
2022/06/24 14:34:39;;;;;;;2.00;0.70;;;;;;;;;;10475767;28;20241;-72
2022/06/24 14:45:13;;;;;;;1.95;0.90;;;;;;;;;;10476541;28;20190;-73
2022/06/24 14:50:14;;;;;;;1.05;1.00;;;;;;;;;;10502118;28;20608;-74
2022/06/24 14:55:15;;;;;;;0.88;0.88;;;;;;;;;;10502660;28;20213;-73
2022/06/24 15:00:17;;;;;;;1.08;1.08;;;;;;;;;;10483301;28;20196;-73
2022/06/24 15:05:19;;;;;;;1.60;1.48;;;;;;;;;;10479938;28;20188;-73
2022/06/24 15:10:20;;;;;;;2.25;1.30;;;;;;;;;;10493395;28;20260;-74
2022/06/24 15:15:21;;;;;;;3.72;1.55;;;;;;;;;;10501189;28;20339;-73
2022/06/24 15:20:22;;;;;;;1.73;1.60;;;;;;;;;;10494687;28;20368;-73
2022/06/24 15:25:23;;;;;;;2.45;1.63;;;;;;;;;;10505162;28;20182;-73
2022/06/24 15:30:24;;;;;;;1.48;1.38;;;;;;;;;;10482674;28;20237;-73
2022/06/24 15:35:26;;;;;;;2.28;1.30;;;;;;;;;;10504030;28;20201;-73
2022/06/24 15:40:28;;;;;;;1.67;1.58;;;;;;;;;;10498881;28;20255;-73
2022/06/24 15:45:29;;;;;;;3.92;1.40;;;;;;;;;;10471399;28;20914;-74
2022/06/24 15:50:30;;;;;;;1.77;1.77;;;;;;;;;;10482652;28;20212;-73
2022/06/24 15:55:31;;;;;;;1.67;1.58;;;;;;;;;;10489355;28;20217;-73
2022/06/24 16:00:32;;;;;;;1.38;1.38;;;;;;;;;;10481357;28;20218;-73
2022/06/24 16:05:33;;;;;;;1.58;1.58;;;;;;;;;;10466849;28;20178;-73
2022/06/24 16:10:34;;;;;;;2.30;1.33;;;;;;;;;;10496166;28;20225;-73
2022/06/24 16:15:35;;;;;;;1.58;1.58;;;;;;;;;;10500948;28;20209;-72
2022/06/24 16:20:37;;;;;;;1.42;1.33;;;;;;;;;;10505505;28;20189;-72
2022/06/24 16:30:58;;;;;;;1.02;1.00;;;;;;;;;;10481415;28;20217;-72
2022/06/24 16:36:00;;;;;;;1.02;1.00;;;;;;;;;;10480408;28;20205;-72
2022/06/24 16:41:01;;;;;;;1.30;1.20;;;;;;;;;;10471654;28;20269;-72
2022/06/24 16:46:04;;;;;;;4.00;1.20;;;;;;;;;;10502352;28;20792;-72
2022/06/24 16:51:06;;;;;;;3.55;1.20;;;;;;;;;;10499436;28;20217;-73
2022/06/24 16:56:07;;;;;;;1.30;1.20;;;;;;;;;;10500502;28;20178;-73
2022/06/24 17:01:09;;;;;;;1.00;0.88;;;;;;;;;;10482673;28;20754;-73
2022/06/24 17:06:11;;;;;;;0.68;0.60;;;;;;;;;;10473178;28;20204;-72
2022/06/24 17:11:12;;;;;;;0.60;0.60;;;;;;;;;;10495248;28;20174;-72
2022/06/24 17:16:13;;;;;;;1.52;0.60;;;;;;;;;;10480350;28;20186;-73
2022/06/24 17:21:14;;;;;;;1.55;0.60;;;;;;;;;;10493868;28;20646;-72
2022/06/24 17:26:15;;;;;;;0.40;0.40;;;;;;;;;;10476843;28;20181;-72
2022/06/24 17:31:16;;;;;;;0.90;0.40;;;;;;;;;;10482702;28;20748;-73
2022/06/24 17:36:17;;;;;;;0.75;0.40;;;;;;;;;;10502454;28;20181;-73
2022/06/24 17:41:18;;;;;;;0.50;0.47;;;;;;;;;;10511611;28;20194;-73
2022/06/24 17:46:19;;;;;;;1.88;0.70;;;;;;;;;;10503293;28;21283;-73
2022/06/24 17:51:20;;;;;;;1.00;0.40;;;;;;;;;;10508226;28;20173;-73
2022/06/24 17:56:21;;;;;;;3.00;0.55;;;;;;;;;;10495863;28;20204;-73
2022/06/24 18:01:23;;;;;;;0.63;0.60;;;;;;;;;;10494730;28;20206;-73
2022/06/24 18:06:24;;;;;;;1.02;0.55;;;;;;;;;;10502580;28;20235;-73
2022/06/24 18:11:25;;;;;;;1.42;0.40;;;;;;;;;;10493787;28;20776;-73
2022/06/24 18:16:26;;;;;;;0.50;0.50;;;;;;;;;;10509868;28;23232;-73
2022/06/24 18:21:28;;;;;;;0.57;0.50;;;;;;;;;;10511530;28;20177;-73
2022/06/24 18:26:29;;;;;;;0.57;0.40;;;;;;;;;;10513740;28;20177;-73
2022/06/24 18:31:30;;;;;;;1.33;0.60;;;;;;;;;;10492710;28;20225;-73
2022/06/24 18:36:31;;;;;;;0.50;0.50;;;;;;;;;;10506950;28;20682;-73
2022/06/24 18:41:32;;;;;;;0.50;0.50;;;;;;;;;;10489151;28;20223;-73
2022/06/24 18:46:33;;;;;;;1.55;0.43;;;;;;;;;;10513528;28;20197;-73
2022/06/24 18:51:34;;;;;;;3.08;0.63;;;;;;;;;;10489602;28;20815;-73
2022/06/24 18:56:35;;;;;;;1.38;0.50;;;;;;;;;;10488294;28;20197;-73
2022/06/24 19:01:36;;;;;;;0.70;0.70;;;;;;;;;;10479063;28;20213;-72
2022/06/24 19:06:38;;;;;;;0.90;0.70;;;;;;;;;;10496547;28;20566;-72
2022/06/24 19:11:39;;;;;;;1.40;0.85;;;;;;;;;;10500384;28;20204;-73
2022/06/24 19:16:41;;;;;;;2.65;0.70;;;;;;;;;;10510665;28;20678;-73
2022/06/24 19:21:43;;;;;;;0.70;0.70;;;;;;;;;;10511073;28;20264;-73
2022/06/24 19:26:44;;;;;;;0.70;0.70;;;;;;;;;;10492430;28;20247;-72
2022/06/24 19:31:45;;;;;;;1.17;0.73;;;;;;;;;;10494048;28;20589;-72
2022/06/24 19:36:46;;;;;;;0.85;0.85;;;;;;;;;;10508999;28;20646;-73
2022/06/24 19:41:48;;;;;;;3.92;1.20;;;;;;;;;;10502883;28;20276;-72
2022/06/24 19:46:50;;;;;;;2.55;1.13;;;;;;;;;;10497191;28;20209;-73
2022/06/24 19:51:51;;;;;;;1.80;1.40;;;;;;;;;;10487255;28;20197;-73
2022/06/24 19:56:53;;;;;;;1.40;1.20;;;;;;;;;;10481603;28;20853;-73
2022/06/24 20:07:14;;;;;;;2.25;1.48;;;;;;;;;;10500037;28;20212;-72
2022/06/24 20:12:15;;;;;;;1.40;1.40;;;;;;;;;;10506267;28;20736;-73
2022/06/24 20:17:16;;;;;;;1.23;1.10;;;;;;;;;;10506831;28;20815;-73
2022/06/24 20:22:17;;;;;;;0.98;0.90;;;;;;;;;;10509311;28;20207;-72
2022/06/24 20:27:18;;;;;;;1.52;1.35;;;;;;;;;;10490266;28;20272;-73
2022/06/24 20:32:19;;;;;;;1.50;1.10;;;;;;;;;;10500453;28;20592;-72
2022/06/24 20:37:20;;;;;;;1.42;1.00;;;;;;;;;;10501334;28;20677;-73
2022/06/24 20:42:21;;;;;;;0.98;0.98;;;;;;;;;;10508859;28;20173;-72
2022/06/24 20:47:23;;;;;;;1.27;1.27;;;;;;;;;;10504571;28;20208;-73
2022/06/24 20:52:24;;;;;;;0.95;0.95;;;;;;;;;;10509126;28;20240;-73
2022/06/24 20:57:25;;;;;;;3.22;1.15;;;;;;;;;;10469597;28;20246;-72
2022/06/24 21:02:26;;;;;;;1.17;1.17;;;;;;;;;;10436833;28;20223;-73
2022/06/24 21:07:27;;;;;;;1.00;1.00;;;;;;;;;;10476487;28;20210;-72
2022/06/24 21:12:28;;;;;;;1.08;1.08;;;;;;;;;;10514352;28;20233;-73
2022/06/24 21:17:29;;;;;;;0.98;0.98;;;;;;;;;;10515487;28;20818;-73
2022/06/24 21:22:30;;;;;;;2.00;0.93;;;;;;;;;;10478120;28;20273;-72
2022/06/24 21:27:31;;;;;;;1.10;1.10;;;;;;;;;;10517364;28;20262;-72
2022/06/24 21:32:32;;;;;;;3.10;1.50;;;;;;;;;;10495970;28;20229;-72
2022/06/24 21:37:33;;;;;;;1.63;1.55;;;;;;;;;;10515667;28;20276;-73
2022/06/24 21:42:36;;;;;;;1.63;1.52;;;;;;;;;;10517815;28;20184;-72
2022/06/24 21:47:37;;;;;;;1.70;1.60;;;;;;;;;;10518280;28;20201;-73
2022/06/24 21:52:38;;;;;;;1.65;1.55;;;;;;;;;;10498955;28;20213;-72
2022/06/24 21:57:39;;;;;;;6.57;1.80;;;;;;;;;;10516400;28;20223;-73
2022/06/24 22:02:40;;;;;;;3.30;1.23;;;;;;;;;;10479661;28;20215;-72
2022/06/24 22:07:41;;;;;;;1.00;1.00;;;;;;;;;;10517389;28;20193;-72
2022/06/24 22:12:42;;;;;;;2.05;1.17;;;;;;;;;;10525443;28;21048;-73
2022/06/24 22:17:54;;;;;;;1.30;1.20;;;;;;;;;;10518605;28;20206;-72
2022/06/24 22:22:55;;;;;;;2.63;1.20;;;;;;;;;;10515407;28;20178;-72
2022/06/24 22:27:59;;;;;;;1.35;1.25;;;;;;;;;;10503335;28;20709;-72
2022/06/24 22:33:01;;;;;;;2.85;1.30;;;;;;;;;;10469839;28;20223;-72
2022/06/24 22:38:03;;;;;;;1.23;1.13;;;;;;;;;;10514453;28;20550;-72
2022/06/24 22:43:04;;;;;;;2.20;2.10;;;;;;;;;;10514529;28;20285;-72
2022/06/24 22:48:05;;;;;;;2.85;1.70;;;;;;;;;;10507510;28;20224;-72
2022/06/24 22:53:06;;;;;;;2.75;2.30;;;;;;;;;;10512435;28;20289;-72
2022/06/24 22:58:07;;;;;;;2.38;2.08;;;;;;;;;;10481947;28;20626;-72
2022/06/24 23:03:08;;;;;;;2.25;1.98;;;;;;;;;;10495508;28;20225;-72
2022/06/24 23:08:09;;;;;;;2.28;2.15;;;;;;;;;;10511708;28;20207;-72
2022/06/24 23:13:10;;;;;;;4.53;3.08;;;;;;;;;;10508801;28;20302;-72
2022/06/24 23:18:11;;;;;;;3.38;3.13;;;;;;;;;;10488793;28;20206;-72
2022/06/24 23:23:12;;;;;;;2.90;2.70;;;;;;;;;;10510866;28;20760;-72
2022/06/24 23:28:13;;;;;;;3.20;3.03;;;;;;;;;;10492499;28;20267;-72
2022/06/24 23:33:14;;;;;;;2.60;2.50;;;;;;;;;;10501985;28;20221;-71
2022/06/24 23:38:15;;;;;;;3.00;2.80;;;;;;;;;;10491505;28;20216;-72
2022/06/24 23:43:27;;;;;;;4.68;2.83;;;;;;;;;;10490670;28;20181;-72
2022/06/24 23:53:47;;;;;;;3.50;3.20;;;;;;;;;;10489483;28;20309;-72
2022/06/24 23:58:48;;;;;;;5.25;3.38;;;;;;;;;;10510512;28;20227;-72
